sensor_id;sensor_type;location;lat;lon;timestamp;P1;durP1;ratioP1;P2;durP2;ratioP2
4603;SDS011;2314;48.272;11.562;2022-12-29T00:02:12;123.60;;;4.47;;
4603;SDS011;2314;48.272;11.562;2022-12-29T00:04:41;123.80;;;4.40;;
4603;SDS011;2314;48.272;11.562;2022-12-29T00:07:08;124.00;;;4.77;;
4603;SDS011;2314;48.272;11.562;2022-12-29T00:09:35;123.90;;;4.10;;
4603;SDS011;2314;48.272;11.562;2022-12-29T00:12:04;123.00;;;4.40;;
4603;SDS011;2314;48.272;11.562;2022-12-29T00:14:31;121.87;;;3.83;;
4603;SDS011;2314;48.272;11.562;2022-12-29T00:17:15;121.57;;;3.73;;
4603;SDS011;2314;48.272;11.562;2022-12-29T00:19:42;123.20;;;4.23;;
4603;SDS011;2314;48.272;11.562;2022-12-29T00:22:27;121.43;;;3.63;;
4603;SDS011;2314;48.272;11.562;2022-12-29T00:25:12;122.57;;;4.07;;
4603;SDS011;2314;48.272;11.562;2022-12-29T00:27:58;121.47;;;4.23;;
4603;SDS011;2314;48.272;11.562;2022-12-29T00:30:43;122.57;;;4.63;;
4603;SDS011;2314;48.272;11.562;2022-12-29T00:33:28;123.37;;;4.90;;
4603;SDS011;2314;48.272;11.562;2022-12-29T00:36:15;122.67;;;4.90;;
4603;SDS011;2314;48.272;11.562;2022-12-29T00:38:47;125.60;;;5.50;;
4603;SDS011;2314;48.272;11.562;2022-12-29T00:41:35;123.33;;;4.80;;
4603;SDS011;2314;48.272;11.562;2022-12-29T00:44:21;125.50;;;5.37;;
4603;SDS011;2314;48.272;11.562;2022-12-29T00:46:48;122.27;;;4.73;;
4603;SDS011;2314;48.272;11.562;2022-12-29T00:49:15;124.47;;;5.37;;
4603;SDS011;2314;48.272;11.562;2022-12-29T00:51:56;122.33;;;5.47;;
4603;SDS011;2314;48.272;11.562;2022-12-29T00:54:26;123.07;;;4.90;;
4603;SDS011;2314;48.272;11.562;2022-12-29T00:56:54;121.60;;;5.00;;
4603;SDS011;2314;48.272;11.562;2022-12-29T00:59:22;126.43;;;4.60;;
4603;SDS011;2314;48.272;11.562;2022-12-29T01:01:50;122.27;;;4.83;;
4603;SDS011;2314;48.272;11.562;2022-12-29T01:04:19;120.57;;;3.77;;
4603;SDS011;2314;48.272;11.562;2022-12-29T01:06:47;120.50;;;3.90;;
4603;SDS011;2314;48.272;11.562;2022-12-29T01:09:15;120.97;;;3.83;;
4603;SDS011;2314;48.272;11.562;2022-12-29T01:12:01;118.90;;;3.53;;
4603;SDS011;2314;48.272;11.562;2022-12-29T01:14:29;120.30;;;3.60;;
4603;SDS011;2314;48.272;11.562;2022-12-29T01:16:56;119.07;;;3.40;;
4603;SDS011;2314;48.272;11.562;2022-12-29T01:19:24;119.37;;;3.23;;
4603;SDS011;2314;48.272;11.562;2022-12-29T01:21:51;119.57;;;3.70;;
4603;SDS011;2314;48.272;11.562;2022-12-29T01:24:19;118.97;;;3.37;;
4603;SDS011;2314;48.272;11.562;2022-12-29T01:26:46;119.53;;;3.30;;
4603;SDS011;2314;48.272;11.562;2022-12-29T01:29:14;120.37;;;3.30;;
4603;SDS011;2314;48.272;11.562;2022-12-29T01:31:43;118.07;;;3.20;;
4603;SDS011;2314;48.272;11.562;2022-12-29T01:34:10;119.10;;;3.23;;
4603;SDS011;2314;48.272;11.562;2022-12-29T01:36:38;136.10;;;3.43;;
4603;SDS011;2314;48.272;11.562;2022-12-29T01:39:05;118.87;;;3.20;;
4603;SDS011;2314;48.272;11.562;2022-12-29T01:41:32;118.67;;;2.97;;
4603;SDS011;2314;48.272;11.562;2022-12-29T01:43:59;118.80;;;3.10;;
4603;SDS011;2314;48.272;11.562;2022-12-29T01:46:28;119.00;;;3.00;;
4603;SDS011;2314;48.272;11.562;2022-12-29T01:49:03;119.20;;;3.20;;
4603;SDS011;2314;48.272;11.562;2022-12-29T01:51:37;118.43;;;2.90;;
4603;SDS011;2314;48.272;11.562;2022-12-29T01:54:09;119.20;;;3.23;;
4603;SDS011;2314;48.272;11.562;2022-12-29T01:56:40;118.50;;;2.90;;
4603;SDS011;2314;48.272;11.562;2022-12-29T01:59:10;119.47;;;3.20;;
4603;SDS011;2314;48.272;11.562;2022-12-29T02:01:43;118.17;;;3.20;;
4603;SDS011;2314;48.272;11.562;2022-12-29T02:04:12;118.77;;;3.00;;
4603;SDS011;2314;48.272;11.562;2022-12-29T02:06:41;119.20;;;3.03;;
4603;SDS011;2314;48.272;11.562;2022-12-29T02:09:12;119.80;;;3.23;;
4603;SDS011;2314;48.272;11.562;2022-12-29T02:11:39;119.07;;;3.10;;
4603;SDS011;2314;48.272;11.562;2022-12-29T02:14:08;119.70;;;3.20;;
4603;SDS011;2314;48.272;11.562;2022-12-29T02:16:40;117.73;;;2.90;;
4603;SDS011;2314;48.272;11.562;2022-12-29T02:19:37;118.37;;;2.93;;
4603;SDS011;2314;48.272;11.562;2022-12-29T02:22:35;119.47;;;3.20;;
4603;SDS011;2314;48.272;11.562;2022-12-29T02:25:26;119.17;;;3.20;;
4603;SDS011;2314;48.272;11.562;2022-12-29T02:31:18;118.70;;;3.00;;
4603;SDS011;2314;48.272;11.562;2022-12-29T02:33:52;118.37;;;2.97;;
4603;SDS011;2314;48.272;11.562;2022-12-29T02:36:28;120.60;;;3.47;;
4603;SDS011;2314;48.272;11.562;2022-12-29T02:39:06;128.00;;;3.77;;
4603;SDS011;2314;48.272;11.562;2022-12-29T02:41:42;118.97;;;3.03;;
4603;SDS011;2314;48.272;11.562;2022-12-29T02:44:25;119.57;;;3.40;;
4603;SDS011;2314;48.272;11.562;2022-12-29T02:47:00;120.77;;;3.33;;
4603;SDS011;2314;48.272;11.562;2022-12-29T02:49:36;119.07;;;3.10;;
4603;SDS011;2314;48.272;11.562;2022-12-29T02:52:09;119.40;;;3.17;;
4603;SDS011;2314;48.272;11.562;2022-12-29T02:54:42;117.97;;;3.00;;
4603;SDS011;2314;48.272;11.562;2022-12-29T02:57:10;117.97;;;2.80;;
4603;SDS011;2314;48.272;11.562;2022-12-29T02:59:42;117.67;;;2.80;;
4603;SDS011;2314;48.272;11.562;2022-12-29T03:02:26;117.27;;;3.03;;
4603;SDS011;2314;48.272;11.562;2022-12-29T03:05:21;122.43;;;3.20;;
4603;SDS011;2314;48.272;11.562;2022-12-29T03:08:11;116.70;;;2.70;;
4603;SDS011;2314;48.272;11.562;2022-12-29T03:10:50;121.77;;;3.40;;
4603;SDS011;2314;48.272;11.562;2022-12-29T03:13:26;118.27;;;3.00;;
4603;SDS011;2314;48.272;11.562;2022-12-29T03:16:20;118.00;;;2.80;;
4603;SDS011;2314;48.272;11.562;2022-12-29T03:18:54;117.20;;;2.90;;
4603;SDS011;2314;48.272;11.562;2022-12-29T03:21:26;119.13;;;3.50;;
4603;SDS011;2314;48.272;11.562;2022-12-29T03:24:18;117.27;;;2.80;;
4603;SDS011;2314;48.272;11.562;2022-12-29T03:26:49;119.60;;;2.80;;
4603;SDS011;2314;48.272;11.562;2022-12-29T03:29:19;116.53;;;2.70;;
4603;SDS011;2314;48.272;11.562;2022-12-29T03:31:47;116.47;;;2.70;;
4603;SDS011;2314;48.272;11.562;2022-12-29T03:34:17;117.00;;;2.87;;
4603;SDS011;2314;48.272;11.562;2022-12-29T03:36:47;117.27;;;2.87;;
4603;SDS011;2314;48.272;11.562;2022-12-29T03:39:20;116.50;;;3.00;;
4603;SDS011;2314;48.272;11.562;2022-12-29T03:41:50;118.00;;;3.03;;
4603;SDS011;2314;48.272;11.562;2022-12-29T03:44:30;116.43;;;2.67;;
4603;SDS011;2314;48.272;11.562;2022-12-29T03:46:59;117.67;;;3.00;;
4603;SDS011;2314;48.272;11.562;2022-12-29T03:49:27;116.70;;;2.60;;
4603;SDS011;2314;48.272;11.562;2022-12-29T03:51:54;117.57;;;2.70;;
4603;SDS011;2314;48.272;11.562;2022-12-29T03:54:21;116.90;;;2.47;;
4603;SDS011;2314;48.272;11.562;2022-12-29T03:56:48;116.63;;;2.70;;
4603;SDS011;2314;48.272;11.562;2022-12-29T03:59:15;115.87;;;2.63;;
4603;SDS011;2314;48.272;11.562;2022-12-29T04:01:42;116.80;;;2.47;;
4603;SDS011;2314;48.272;11.562;2022-12-29T04:04:09;116.67;;;2.73;;
4603;SDS011;2314;48.272;11.562;2022-12-29T04:06:38;116.30;;;2.67;;
4603;SDS011;2314;48.272;11.562;2022-12-29T04:09:05;116.80;;;2.80;;
4603;SDS011;2314;48.272;11.562;2022-12-29T04:11:33;116.07;;;2.50;;
4603;SDS011;2314;48.272;11.562;2022-12-29T04:14:00;116.70;;;2.73;;
4603;SDS011;2314;48.272;11.562;2022-12-29T04:16:27;116.30;;;2.40;;
4603;SDS011;2314;48.272;11.562;2022-12-29T04:18:54;116.47;;;2.60;;
4603;SDS011;2314;48.272;11.562;2022-12-29T04:21:21;119.10;;;2.80;;
4603;SDS011;2314;48.272;11.562;2022-12-29T04:23:49;117.77;;;3.10;;
4603;SDS011;2314;48.272;11.562;2022-12-29T04:26:16;115.77;;;2.53;;
4603;SDS011;2314;48.272;11.562;2022-12-29T04:28:43;116.53;;;2.60;;
4603;SDS011;2314;48.272;11.562;2022-12-29T04:31:10;117.60;;;2.70;;
4603;SDS011;2314;48.272;11.562;2022-12-29T04:33:37;115.93;;;2.70;;
4603;SDS011;2314;48.272;11.562;2022-12-29T04:36:04;116.30;;;2.60;;
4603;SDS011;2314;48.272;11.562;2022-12-29T04:38:31;116.77;;;2.70;;
4603;SDS011;2314;48.272;11.562;2022-12-29T04:41:00;117.10;;;2.63;;
4603;SDS011;2314;48.272;11.562;2022-12-29T04:43:28;119.73;;;2.80;;
4603;SDS011;2314;48.272;11.562;2022-12-29T04:45:55;116.87;;;2.60;;
4603;SDS011;2314;48.272;11.562;2022-12-29T04:48:22;115.97;;;2.90;;
4603;SDS011;2314;48.272;11.562;2022-12-29T04:50:49;116.60;;;2.57;;
4603;SDS011;2314;48.272;11.562;2022-12-29T04:53:17;119.37;;;2.70;;
4603;SDS011;2314;48.272;11.562;2022-12-29T04:55:47;116.57;;;2.70;;
4603;SDS011;2314;48.272;11.562;2022-12-29T04:58:16;116.33;;;2.70;;
4603;SDS011;2314;48.272;11.562;2022-12-29T05:00:43;116.27;;;2.50;;
4603;SDS011;2314;48.272;11.562;2022-12-29T05:03:10;116.70;;;2.63;;
4603;SDS011;2314;48.272;11.562;2022-12-29T05:05:37;115.90;;;2.40;;
4603;SDS011;2314;48.272;11.562;2022-12-29T05:08:04;118.70;;;2.90;;
4603;SDS011;2314;48.272;11.562;2022-12-29T05:10:32;120.97;;;2.70;;
4603;SDS011;2314;48.272;11.562;2022-12-29T05:12:59;117.80;;;2.70;;
4603;SDS011;2314;48.272;11.562;2022-12-29T05:15:27;117.07;;;2.70;;
4603;SDS011;2314;48.272;11.562;2022-12-29T05:17:54;118.87;;;2.80;;
4603;SDS011;2314;48.272;11.562;2022-12-29T05:20:21;117.13;;;2.80;;
4603;SDS011;2314;48.272;11.562;2022-12-29T05:22:48;116.47;;;2.63;;
4603;SDS011;2314;48.272;11.562;2022-12-29T05:25:15;115.40;;;2.60;;
4603;SDS011;2314;48.272;11.562;2022-12-29T05:27:42;117.00;;;2.63;;
4603;SDS011;2314;48.272;11.562;2022-12-29T05:30:09;118.07;;;2.90;;
4603;SDS011;2314;48.272;11.562;2022-12-29T05:32:39;116.80;;;2.50;;
4603;SDS011;2314;48.272;11.562;2022-12-29T05:35:06;116.37;;;2.77;;
4603;SDS011;2314;48.272;11.562;2022-12-29T05:37:34;116.57;;;2.80;;
4603;SDS011;2314;48.272;11.562;2022-12-29T05:40:01;117.50;;;2.97;;
4603;SDS011;2314;48.272;11.562;2022-12-29T05:42:29;122.20;;;3.20;;
4603;SDS011;2314;48.272;11.562;2022-12-29T05:44:56;115.80;;;2.60;;
4603;SDS011;2314;48.272;11.562;2022-12-29T05:47:24;116.27;;;2.87;;
4603;SDS011;2314;48.272;11.562;2022-12-29T05:49:52;116.80;;;2.60;;
4603;SDS011;2314;48.272;11.562;2022-12-29T05:52:19;116.07;;;2.60;;
4603;SDS011;2314;48.272;11.562;2022-12-29T05:54:46;116.30;;;2.50;;
4603;SDS011;2314;48.272;11.562;2022-12-29T05:57:13;116.90;;;2.50;;
4603;SDS011;2314;48.272;11.562;2022-12-29T05:59:40;116.97;;;2.70;;
4603;SDS011;2314;48.272;11.562;2022-12-29T06:02:07;120.27;;;2.87;;
4603;SDS011;2314;48.272;11.562;2022-12-29T06:04:34;116.07;;;2.57;;
4603;SDS011;2314;48.272;11.562;2022-12-29T06:07:03;117.23;;;2.70;;
4603;SDS011;2314;48.272;11.562;2022-12-29T06:09:30;116.27;;;2.57;;
4603;SDS011;2314;48.272;11.562;2022-12-29T06:11:57;124.63;;;2.90;;
4603;SDS011;2314;48.272;11.562;2022-12-29T06:14:23;116.60;;;2.77;;
4603;SDS011;2314;48.272;11.562;2022-12-29T06:16:50;115.57;;;2.50;;
4603;SDS011;2314;48.272;11.562;2022-12-29T06:19:17;115.63;;;2.50;;
4603;SDS011;2314;48.272;11.562;2022-12-29T06:21:44;114.80;;;2.50;;
4603;SDS011;2314;48.272;11.562;2022-12-29T06:24:13;115.37;;;2.30;;
4603;SDS011;2314;48.272;11.562;2022-12-29T06:26:40;116.07;;;2.40;;
4603;SDS011;2314;48.272;11.562;2022-12-29T06:29:07;118.00;;;2.80;;
4603;SDS011;2314;48.272;11.562;2022-12-29T06:31:34;116.60;;;2.50;;
4603;SDS011;2314;48.272;11.562;2022-12-29T06:34:01;117.17;;;3.03;;
4603;SDS011;2314;48.272;11.562;2022-12-29T06:36:28;116.60;;;2.80;;
4603;SDS011;2314;48.272;11.562;2022-12-29T06:38:55;115.60;;;2.60;;
4603;SDS011;2314;48.272;11.562;2022-12-29T06:41:24;120.67;;;2.93;;
4603;SDS011;2314;48.272;11.562;2022-12-29T06:43:51;117.53;;;2.80;;
4603;SDS011;2314;48.272;11.562;2022-12-29T06:46:18;116.20;;;2.63;;
4603;SDS011;2314;48.272;11.562;2022-12-29T06:48:45;115.97;;;2.60;;
4603;SDS011;2314;48.272;11.562;2022-12-29T06:51:12;118.83;;;3.00;;
4603;SDS011;2314;48.272;11.562;2022-12-29T06:53:39;115.47;;;2.60;;
4603;SDS011;2314;48.272;11.562;2022-12-29T06:56:06;115.50;;;2.30;;
4603;SDS011;2314;48.272;11.562;2022-12-29T06:58:34;117.23;;;2.90;;
4603;SDS011;2314;48.272;11.562;2022-12-29T07:01:01;116.97;;;2.70;;
4603;SDS011;2314;48.272;11.562;2022-12-29T07:03:28;116.57;;;2.80;;
4603;SDS011;2314;48.272;11.562;2022-12-29T07:05:55;118.30;;;2.67;;
4603;SDS011;2314;48.272;11.562;2022-12-29T07:08:23;116.77;;;2.90;;
4603;SDS011;2314;48.272;11.562;2022-12-29T07:10:50;117.30;;;2.70;;
4603;SDS011;2314;48.272;11.562;2022-12-29T07:13:17;116.40;;;2.70;;
4603;SDS011;2314;48.272;11.562;2022-12-29T07:15:45;115.87;;;2.60;;
4603;SDS011;2314;48.272;11.562;2022-12-29T07:18:12;121.00;;;2.90;;
4603;SDS011;2314;48.272;11.562;2022-12-29T07:20:39;115.27;;;2.50;;
4603;SDS011;2314;48.272;11.562;2022-12-29T07:23:06;116.67;;;2.73;;
4603;SDS011;2314;48.272;11.562;2022-12-29T07:25:34;117.70;;;3.03;;
4603;SDS011;2314;48.272;11.562;2022-12-29T07:28:01;118.07;;;2.70;;
4603;SDS011;2314;48.272;11.562;2022-12-29T07:30:28;115.60;;;2.50;;
4603;SDS011;2314;48.272;11.562;2022-12-29T07:32:56;118.47;;;2.53;;
4603;SDS011;2314;48.272;11.562;2022-12-29T07:35:23;116.80;;;2.40;;
4603;SDS011;2314;48.272;11.562;2022-12-29T07:37:50;116.57;;;2.57;;
4603;SDS011;2314;48.272;11.562;2022-12-29T07:40:17;116.60;;;2.67;;
4603;SDS011;2314;48.272;11.562;2022-12-29T07:42:44;119.33;;;2.73;;
4603;SDS011;2314;48.272;11.562;2022-12-29T07:45:11;117.07;;;2.60;;
4603;SDS011;2314;48.272;11.562;2022-12-29T07:47:38;117.90;;;3.10;;
4603;SDS011;2314;48.272;11.562;2022-12-29T07:50:07;118.20;;;2.90;;
4603;SDS011;2314;48.272;11.562;2022-12-29T07:52:34;117.30;;;3.10;;
4603;SDS011;2314;48.272;11.562;2022-12-29T07:55:01;116.67;;;2.80;;
4603;SDS011;2314;48.272;11.562;2022-12-29T07:57:28;116.10;;;2.67;;
4603;SDS011;2314;48.272;11.562;2022-12-29T07:59:55;122.00;;;3.20;;
4603;SDS011;2314;48.272;11.562;2022-12-29T08:02:22;118.67;;;3.30;;
4603;SDS011;2314;48.272;11.562;2022-12-29T08:04:51;116.27;;;2.63;;
4603;SDS011;2314;48.272;11.562;2022-12-29T08:07:19;118.40;;;2.80;;
4603;SDS011;2314;48.272;11.562;2022-12-29T08:09:46;121.50;;;3.03;;
4603;SDS011;2314;48.272;11.562;2022-12-29T08:12:13;116.40;;;2.60;;
4603;SDS011;2314;48.272;11.562;2022-12-29T08:14:40;116.80;;;2.87;;
4603;SDS011;2314;48.272;11.562;2022-12-29T08:17:07;118.07;;;2.70;;
4603;SDS011;2314;48.272;11.562;2022-12-29T08:19:35;116.70;;;3.03;;
4603;SDS011;2314;48.272;11.562;2022-12-29T08:22:02;119.73;;;3.03;;
4603;SDS011;2314;48.272;11.562;2022-12-29T08:24:30;115.60;;;2.63;;
4603;SDS011;2314;48.272;11.562;2022-12-29T08:26:57;119.73;;;3.17;;
4603;SDS011;2314;48.272;11.562;2022-12-29T08:29:24;118.70;;;2.73;;
4603;SDS011;2314;48.272;11.562;2022-12-29T08:31:51;117.70;;;2.77;;
4603;SDS011;2314;48.272;11.562;2022-12-29T08:34:18;116.80;;;2.67;;
4603;SDS011;2314;48.272;11.562;2022-12-29T08:36:45;116.63;;;2.60;;
4603;SDS011;2314;48.272;11.562;2022-12-29T08:39:12;116.57;;;2.77;;
4603;SDS011;2314;48.272;11.562;2022-12-29T08:41:41;116.50;;;2.90;;
4603;SDS011;2314;48.272;11.562;2022-12-29T08:44:08;116.50;;;2.63;;
4603;SDS011;2314;48.272;11.562;2022-12-29T08:46:35;116.40;;;2.70;;
4603;SDS011;2314;48.272;11.562;2022-12-29T08:49:02;116.57;;;2.80;;
4603;SDS011;2314;48.272;11.562;2022-12-29T08:51:29;116.20;;;2.77;;
4603;SDS011;2314;48.272;11.562;2022-12-29T08:53:56;115.80;;;2.50;;
4603;SDS011;2314;48.272;11.562;2022-12-29T08:56:24;116.80;;;2.73;;
4603;SDS011;2314;48.272;11.562;2022-12-29T08:58:53;116.93;;;3.00;;
4603;SDS011;2314;48.272;11.562;2022-12-29T09:01:20;116.67;;;2.83;;
4603;SDS011;2314;48.272;11.562;2022-12-29T09:03:48;116.10;;;2.50;;
4603;SDS011;2314;48.272;11.562;2022-12-29T09:06:16;116.30;;;2.63;;
4603;SDS011;2314;48.272;11.562;2022-12-29T09:08:44;117.30;;;2.80;;
4603;SDS011;2314;48.272;11.562;2022-12-29T09:11:12;116.67;;;2.60;;
4603;SDS011;2314;48.272;11.562;2022-12-29T09:13:41;117.80;;;3.30;;
4603;SDS011;2314;48.272;11.562;2022-12-29T09:16:10;120.57;;;3.17;;
4603;SDS011;2314;48.272;11.562;2022-12-29T09:18:37;116.80;;;2.70;;
4603;SDS011;2314;48.272;11.562;2022-12-29T09:21:06;116.47;;;2.60;;
4603;SDS011;2314;48.272;11.562;2022-12-29T09:23:34;118.27;;;2.80;;
4603;SDS011;2314;48.272;11.562;2022-12-29T09:26:01;119.17;;;3.17;;
4603;SDS011;2314;48.272;11.562;2022-12-29T09:28:29;117.70;;;2.80;;
4603;SDS011;2314;48.272;11.562;2022-12-29T09:30:56;117.07;;;2.70;;
4603;SDS011;2314;48.272;11.562;2022-12-29T09:33:25;116.13;;;2.70;;
4603;SDS011;2314;48.272;11.562;2022-12-29T09:35:54;120.40;;;2.37;;
4603;SDS011;2314;48.272;11.562;2022-12-29T09:38:23;117.87;;;2.57;;
4603;SDS011;2314;48.272;11.562;2022-12-29T09:40:52;116.53;;;2.50;;
4603;SDS011;2314;48.272;11.562;2022-12-29T09:43:37;118.27;;;2.67;;
4603;SDS011;2314;48.272;11.562;2022-12-29T09:46:27;117.67;;;2.60;;
4603;SDS011;2314;48.272;11.562;2022-12-29T09:49:00;117.17;;;2.40;;
4603;SDS011;2314;48.272;11.562;2022-12-29T09:51:38;116.37;;;2.70;;
4603;SDS011;2314;48.272;11.562;2022-12-29T09:54:17;118.57;;;2.53;;
4603;SDS011;2314;48.272;11.562;2022-12-29T09:56:54;119.30;;;2.90;;
4603;SDS011;2314;48.272;11.562;2022-12-29T09:59:23;115.40;;;2.60;;
4603;SDS011;2314;48.272;11.562;2022-12-29T10:01:58;117.50;;;2.57;;
4603;SDS011;2314;48.272;11.562;2022-12-29T10:04:41;116.23;;;2.63;;
4603;SDS011;2314;48.272;11.562;2022-12-29T10:07:10;121.80;;;2.50;;
4603;SDS011;2314;48.272;11.562;2022-12-29T10:09:47;117.30;;;2.83;;
4603;SDS011;2314;48.272;11.562;2022-12-29T10:12:27;115.27;;;2.63;;
4603;SDS011;2314;48.272;11.562;2022-12-29T10:15:05;115.40;;;2.40;;
4603;SDS011;2314;48.272;11.562;2022-12-29T10:17:41;118.30;;;2.80;;
4603;SDS011;2314;48.272;11.562;2022-12-29T10:20:22;117.20;;;2.60;;
4603;SDS011;2314;48.272;11.562;2022-12-29T10:23:02;115.87;;;2.63;;
4603;SDS011;2314;48.272;11.562;2022-12-29T10:25:46;114.90;;;2.50;;
4603;SDS011;2314;48.272;11.562;2022-12-29T10:28:15;116.63;;;2.80;;
4603;SDS011;2314;48.272;11.562;2022-12-29T10:30:47;118.93;;;3.10;;
4603;SDS011;2314;48.272;11.562;2022-12-29T10:33:17;115.20;;;2.60;;
4603;SDS011;2314;48.272;11.562;2022-12-29T10:35:50;115.33;;;2.40;;
4603;SDS011;2314;48.272;11.562;2022-12-29T10:38:19;115.37;;;2.70;;
4603;SDS011;2314;48.272;11.562;2022-12-29T10:40:53;114.60;;;2.53;;
4603;SDS011;2314;48.272;11.562;2022-12-29T10:43:26;115.67;;;2.40;;
4603;SDS011;2314;48.272;11.562;2022-12-29T10:45:57;120.70;;;2.63;;
4603;SDS011;2314;48.272;11.562;2022-12-29T10:48:28;116.13;;;2.70;;
4603;SDS011;2314;48.272;11.562;2022-12-29T10:51:00;120.10;;;2.37;;
4603;SDS011;2314;48.272;11.562;2022-12-29T10:53:33;122.47;;;2.90;;
4603;SDS011;2314;48.272;11.562;2022-12-29T10:56:09;114.33;;;2.47;;
4603;SDS011;2314;48.272;11.562;2022-12-29T10:58:42;116.10;;;2.50;;
4603;SDS011;2314;48.272;11.562;2022-12-29T11:01:12;114.97;;;2.53;;
4603;SDS011;2314;48.272;11.562;2022-12-29T11:06:28;114.97;;;2.37;;
4603;SDS011;2314;48.272;11.562;2022-12-29T11:08:56;115.40;;;2.67;;
4603;SDS011;2314;48.272;11.562;2022-12-29T11:11:26;123.50;;;2.90;;
4603;SDS011;2314;48.272;11.562;2022-12-29T11:14:02;123.83;;;2.57;;
4603;SDS011;2314;48.272;11.562;2022-12-29T11:16:37;114.67;;;2.40;;
4603;SDS011;2314;48.272;11.562;2022-12-29T11:19:10;115.67;;;3.07;;
4603;SDS011;2314;48.272;11.562;2022-12-29T11:21:50;116.47;;;2.67;;
4603;SDS011;2314;48.272;11.562;2022-12-29T11:24:19;114.87;;;2.50;;
4603;SDS011;2314;48.272;11.562;2022-12-29T11:26:49;113.40;;;2.30;;
4603;SDS011;2314;48.272;11.562;2022-12-29T11:29:25;114.37;;;2.63;;
4603;SDS011;2314;48.272;11.562;2022-12-29T11:31:55;115.10;;;2.60;;
4603;SDS011;2314;48.272;11.562;2022-12-29T11:34:24;116.00;;;2.80;;
4603;SDS011;2314;48.272;11.562;2022-12-29T11:37:00;115.40;;;2.77;;
4603;SDS011;2314;48.272;11.562;2022-12-29T11:39:32;114.70;;;2.33;;
4603;SDS011;2314;48.272;11.562;2022-12-29T11:42:05;121.57;;;5.13;;
4603;SDS011;2314;48.272;11.562;2022-12-29T11:44:41;117.03;;;3.37;;
4603;SDS011;2314;48.272;11.562;2022-12-29T11:47:12;116.43;;;2.40;;
4603;SDS011;2314;48.272;11.562;2022-12-29T11:49:53;116.40;;;2.70;;
4603;SDS011;2314;48.272;11.562;2022-12-29T11:52:25;115.20;;;2.33;;
4603;SDS011;2314;48.272;11.562;2022-12-29T11:54:58;114.67;;;2.57;;
4603;SDS011;2314;48.272;11.562;2022-12-29T11:57:25;120.20;;;2.60;;
4603;SDS011;2314;48.272;11.562;2022-12-29T11:59:54;116.10;;;2.70;;
4603;SDS011;2314;48.272;11.562;2022-12-29T12:02:25;114.50;;;2.40;;
4603;SDS011;2314;48.272;11.562;2022-12-29T12:05:24;115.40;;;2.77;;
4603;SDS011;2314;48.272;11.562;2022-12-29T12:08:03;114.60;;;2.43;;
4603;SDS011;2314;48.272;11.562;2022-12-29T12:10:37;114.67;;;2.40;;
4603;SDS011;2314;48.272;11.562;2022-12-29T12:13:14;114.17;;;2.10;;
4603;SDS011;2314;48.272;11.562;2022-12-29T12:15:47;116.90;;;2.40;;
4603;SDS011;2314;48.272;11.562;2022-12-29T12:18:24;115.80;;;2.10;;
4603;SDS011;2314;48.272;11.562;2022-12-29T12:21:08;114.27;;;2.07;;
4603;SDS011;2314;48.272;11.562;2022-12-29T12:23:52;114.70;;;2.30;;
4603;SDS011;2314;48.272;11.562;2022-12-29T12:26:42;114.40;;;2.00;;
4603;SDS011;2314;48.272;11.562;2022-12-29T12:29:22;114.77;;;2.33;;
4603;SDS011;2314;48.272;11.562;2022-12-29T12:31:59;115.40;;;2.10;;
4603;SDS011;2314;48.272;11.562;2022-12-29T12:34:32;119.60;;;2.20;;
4603;SDS011;2314;48.272;11.562;2022-12-29T12:37:10;115.17;;;2.30;;
4603;SDS011;2314;48.272;11.562;2022-12-29T12:40:15;114.27;;;2.10;;
4603;SDS011;2314;48.272;11.562;2022-12-29T12:43:25;115.77;;;2.53;;
4603;SDS011;2314;48.272;11.562;2022-12-29T12:46:09;113.80;;;2.03;;
4603;SDS011;2314;48.272;11.562;2022-12-29T12:49:28;114.90;;;2.40;;
4603;SDS011;2314;48.272;11.562;2022-12-29T12:52:26;115.07;;;2.33;;
4603;SDS011;2314;48.272;11.562;2022-12-29T12:55:04;114.77;;;2.20;;
4603;SDS011;2314;48.272;11.562;2022-12-29T12:58:00;115.07;;;2.37;;
4603;SDS011;2314;48.272;11.562;2022-12-29T13:00:39;123.17;;;2.30;;
4603;SDS011;2314;48.272;11.562;2022-12-29T13:03:17;115.37;;;2.17;;
4603;SDS011;2314;48.272;11.562;2022-12-29T13:06:02;115.97;;;2.30;;
4603;SDS011;2314;48.272;11.562;2022-12-29T13:11:54;114.50;;;2.20;;
4603;SDS011;2314;48.272;11.562;2022-12-29T13:14:37;115.37;;;2.50;;
4603;SDS011;2314;48.272;11.562;2022-12-29T13:17:17;114.37;;;2.20;;
4603;SDS011;2314;48.272;11.562;2022-12-29T13:19:53;114.27;;;2.13;;
4603;SDS011;2314;48.272;11.562;2022-12-29T13:22:27;114.73;;;2.43;;
4603;SDS011;2314;48.272;11.562;2022-12-29T13:28:02;114.97;;;2.30;;
4603;SDS011;2314;48.272;11.562;2022-12-29T13:30:38;117.77;;;2.20;;
4603;SDS011;2314;48.272;11.562;2022-12-29T13:33:15;114.40;;;2.30;;
4603;SDS011;2314;48.272;11.562;2022-12-29T13:35:52;114.90;;;2.20;;
4603;SDS011;2314;48.272;11.562;2022-12-29T13:38:29;115.37;;;2.03;;
4603;SDS011;2314;48.272;11.562;2022-12-29T13:41:00;114.97;;;2.00;;
4603;SDS011;2314;48.272;11.562;2022-12-29T13:43:34;115.40;;;2.50;;
4603;SDS011;2314;48.272;11.562;2022-12-29T13:46:07;114.77;;;2.23;;
4603;SDS011;2314;48.272;11.562;2022-12-29T13:48:40;114.87;;;2.27;;
4603;SDS011;2314;48.272;11.562;2022-12-29T13:51:13;116.27;;;2.60;;
4603;SDS011;2314;48.272;11.562;2022-12-29T13:53:48;114.77;;;2.30;;
4603;SDS011;2314;48.272;11.562;2022-12-29T13:56:30;115.77;;;2.40;;
4603;SDS011;2314;48.272;11.562;2022-12-29T13:59:05;116.40;;;2.30;;
4603;SDS011;2314;48.272;11.562;2022-12-29T14:01:43;116.67;;;2.40;;
4603;SDS011;2314;48.272;11.562;2022-12-29T14:04:23;116.00;;;2.40;;
4603;SDS011;2314;48.272;11.562;2022-12-29T14:06:59;117.77;;;2.57;;
4603;SDS011;2314;48.272;11.562;2022-12-29T14:09:40;126.20;;;4.30;;
4603;SDS011;2314;48.272;11.562;2022-12-29T14:12:21;116.93;;;2.97;;
4603;SDS011;2314;48.272;11.562;2022-12-29T14:15:13;116.47;;;2.30;;
4603;SDS011;2314;48.272;11.562;2022-12-29T14:18:00;116.20;;;2.40;;
4603;SDS011;2314;48.272;11.562;2022-12-29T14:20:31;115.77;;;2.30;;
4603;SDS011;2314;48.272;11.562;2022-12-29T14:23:00;116.87;;;2.40;;
4603;SDS011;2314;48.272;11.562;2022-12-29T14:25:51;116.20;;;2.40;;
4603;SDS011;2314;48.272;11.562;2022-12-29T14:31:34;118.30;;;2.07;;
4603;SDS011;2314;48.272;11.562;2022-12-29T14:36:57;118.57;;;2.30;;
4603;SDS011;2314;48.272;11.562;2022-12-29T14:39:33;116.07;;;2.30;;
4603;SDS011;2314;48.272;11.562;2022-12-29T14:42:06;117.03;;;2.40;;
4603;SDS011;2314;48.272;11.562;2022-12-29T14:44:45;117.47;;;2.50;;
4603;SDS011;2314;48.272;11.562;2022-12-29T14:47:17;118.10;;;2.63;;
4603;SDS011;2314;48.272;11.562;2022-12-29T14:49:46;117.10;;;2.40;;
4603;SDS011;2314;48.272;11.562;2022-12-29T14:52:15;118.07;;;2.40;;
4603;SDS011;2314;48.272;11.562;2022-12-29T14:54:49;116.40;;;2.73;;
4603;SDS011;2314;48.272;11.562;2022-12-29T14:57:24;116.57;;;2.60;;
4603;SDS011;2314;48.272;11.562;2022-12-29T15:00:14;118.87;;;2.67;;
4603;SDS011;2314;48.272;11.562;2022-12-29T15:02:47;117.57;;;2.90;;
4603;SDS011;2314;48.272;11.562;2022-12-29T15:05:24;124.70;;;2.67;;
4603;SDS011;2314;48.272;11.562;2022-12-29T15:07:59;117.00;;;2.57;;
4603;SDS011;2314;48.272;11.562;2022-12-29T15:10:32;118.37;;;2.90;;
4603;SDS011;2314;48.272;11.562;2022-12-29T15:13:05;117.40;;;3.00;;
4603;SDS011;2314;48.272;11.562;2022-12-29T15:15:41;121.63;;;3.10;;
4603;SDS011;2314;48.272;11.562;2022-12-29T15:18:20;117.27;;;2.47;;
4603;SDS011;2314;48.272;11.562;2022-12-29T15:20:51;119.83;;;2.50;;
4603;SDS011;2314;48.272;11.562;2022-12-29T15:23:21;117.70;;;2.60;;